createdAt,value
2023-05-14T00:00:08.416Z,100265.13
2023-05-14T00:02:39.322Z,100258.28
2023-05-14T00:05:10.536Z,100261.84
2023-05-14T00:07:39.127Z,100261.00
2023-05-14T00:10:08.696Z,100266.25
2023-05-14T00:12:37.388Z,100256.81
2023-05-14T00:15:09.476Z,100262.84
2023-05-14T00:17:38.357Z,100255.03
2023-05-14T00:20:08.153Z,100261.97
2023-05-14T00:22:38.340Z,100257.69
2023-05-14T00:25:08.480Z,100257.66
2023-05-14T00:27:37.886Z,100263.88
2023-05-14T00:30:07.986Z,100265.50
2023-05-14T00:32:36.636Z,100256.84
2023-05-14T00:35:05.532Z,100265.59
2023-05-14T00:37:34.189Z,100263.16
2023-05-14T00:40:06.898Z,100270.91
2023-05-14T00:42:35.765Z,100264.09
2023-05-14T00:45:04.322Z,100270.97
2023-05-14T00:47:35.369Z,100266.63
2023-05-14T00:50:05.290Z,100271.91
2023-05-14T00:52:34.290Z,100272.84
2023-05-14T00:55:08.536Z,100268.53
2023-05-14T00:57:37.789Z,100269.44
2023-05-14T01:00:09.026Z,100273.78
2023-05-14T01:02:37.923Z,100276.38
2023-05-14T01:05:08.935Z,100277.28
2023-05-14T01:07:43.009Z,100281.59
2023-05-14T01:10:18.866Z,100275.59
2023-05-14T01:12:54.570Z,100281.69
2023-05-14T01:15:27.000Z,100274.84
2023-05-14T01:17:58.094Z,100285.25
2023-05-14T01:20:27.607Z,100284.34
2023-05-14T01:22:57.624Z,100292.19
2023-05-14T01:25:27.724Z,100283.50
2023-05-14T01:28:02.881Z,100287.00
2023-05-14T01:30:34.104Z,100283.50
2023-05-14T01:33:07.453Z,100293.94
2023-05-14T01:35:36.811Z,100294.78
2023-05-14T01:38:09.162Z,100287.88
2023-05-14T01:40:40.805Z,100295.66
2023-05-14T01:43:10.097Z,100293.06
2023-05-14T01:45:38.761Z,100297.38
2023-05-14T01:48:07.885Z,100294.78
2023-05-14T01:50:36.663Z,100296.53
2023-05-14T01:53:06.709Z,100300.88
2023-05-14T01:55:35.552Z,100293.94
2023-05-14T01:58:04.138Z,100298.22
2023-05-14T02:00:33.132Z,100305.16
2023-05-14T02:03:01.825Z,100300.19
2023-05-14T02:05:31.038Z,100292.00
2023-05-14T02:07:59.500Z,100304.09
2023-05-14T02:10:31.122Z,100298.69
2023-05-14T02:12:59.663Z,100297.00
2023-05-14T02:15:31.039Z,100309.78
2023-05-14T02:18:00.478Z,100301.72
2023-05-14T02:20:29.516Z,100300.09
2023-05-14T02:22:58.391Z,100296.75
2023-05-14T02:25:26.807Z,100309.97
2023-05-14T02:27:56.725Z,100303.81
2023-05-14T02:30:25.572Z,100303.50
2023-05-14T02:32:54.448Z,100310.09
2023-05-14T02:35:22.900Z,100314.00
2023-05-14T02:37:51.528Z,100320.03
2023-05-14T02:40:20.137Z,100319.41
2023-05-14T02:42:49.380Z,100334.06
2023-05-14T02:45:19.123Z,100326.66
2023-05-14T02:47:47.820Z,100333.13
2023-05-14T02:50:17.730Z,100334.78
2023-05-14T02:52:48.164Z,100340.91
2023-05-14T02:55:17.035Z,100345.25
2023-05-14T02:57:45.513Z,100339.31
2023-05-14T03:00:14.820Z,100331.56
2023-05-14T03:02:45.634Z,100333.28
2023-05-14T03:05:14.489Z,100340.28
2023-05-14T03:07:43.106Z,100348.91
2023-05-14T03:10:14.792Z,100335.06
2023-05-14T03:12:43.619Z,100346.38
2023-05-14T03:15:12.765Z,100338.56
2023-05-14T03:17:41.434Z,100345.38
2023-05-14T03:20:12.841Z,100347.97
2023-05-14T03:22:41.421Z,100355.91
2023-05-14T03:25:10.504Z,100361.22
2023-05-14T03:27:39.069Z,100361.22
2023-05-14T03:30:08.885Z,100362.16
2023-05-14T03:32:39.002Z,100366.50
2023-05-14T03:35:08.603Z,100375.22
2023-05-14T03:37:38.637Z,100366.53
2023-05-14T03:40:08.660Z,100361.25
2023-05-14T03:42:38.514Z,100361.19
2023-05-14T03:45:08.168Z,100366.34
2023-05-14T03:47:38.569Z,100367.16
2023-05-14T03:50:09.219Z,100367.03
2023-05-14T03:52:39.159Z,100366.09
2023-05-14T03:55:08.645Z,100366.69
2023-05-14T03:57:37.976Z,100361.38
2023-05-14T04:00:07.363Z,100367.53
2023-05-14T04:02:46.162Z,100366.72
2023-05-14T04:05:15.136Z,100365.53
2023-05-14T04:07:45.922Z,100365.66
2023-05-14T04:10:15.133Z,100370.06
2023-05-14T04:12:43.483Z,100376.47
2023-05-14T04:15:12.862Z,100378.91
2023-05-14T04:17:42.060Z,100378.25
2023-05-14T04:20:11.449Z,100367.53
2023-05-14T04:22:39.894Z,100374.25
2023-05-14T04:25:10.362Z,100377.03
2023-05-14T04:27:38.657Z,100375.34
2023-05-14T04:30:11.724Z,100373.41
2023-05-14T04:32:40.126Z,100371.69
2023-05-14T04:35:10.771Z,100381.50
2023-05-14T04:37:39.370Z,100377.78
2023-05-14T04:40:11.434Z,100384.03
2023-05-14T04:42:40.375Z,100375.38
2023-05-14T04:45:09.613Z,100381.34
2023-05-14T04:47:38.148Z,100385.84
2023-05-14T04:50:08.882Z,100376.19
2023-05-14T04:52:37.340Z,100370.91
2023-05-14T04:55:06.755Z,100381.34
2023-05-14T04:57:36.876Z,100380.19
2023-05-14T05:00:10.157Z,100379.09
2023-05-14T05:02:38.679Z,100380.94
2023-05-14T05:05:07.718Z,100373.94
2023-05-14T05:07:36.382Z,100376.34
2023-05-14T05:10:04.996Z,100382.28
2023-05-14T05:12:36.543Z,100386.03
2023-05-14T05:15:08.071Z,100382.44
2023-05-14T05:17:38.342Z,100378.06
2023-05-14T05:20:11.061Z,100387.66
2023-05-14T05:22:39.537Z,100385.03
2023-05-14T05:25:09.240Z,100377.44
2023-05-14T05:27:41.538Z,100380.69
2023-05-14T05:30:11.369Z,100374.31
2023-05-14T05:32:39.705Z,100371.63
2023-05-14T05:35:08.802Z,100368.22
2023-05-14T05:37:37.149Z,100368.78
2023-05-14T05:40:07.002Z,100370.53
2023-05-14T05:42:35.580Z,100359.81
2023-05-14T05:45:07.705Z,100366.97
2023-05-14T05:47:36.743Z,100370.34
2023-05-14T05:50:05.672Z,100370.25
2023-05-14T05:52:34.308Z,100366.81
2023-05-14T05:55:05.955Z,100360.06
2023-05-14T05:57:36.432Z,100364.94
2023-05-14T06:00:14.269Z,100349.31
2023-05-14T06:02:44.428Z,100349.72
2023-05-14T06:05:13.345Z,100358.72
2023-05-14T06:07:41.817Z,100354.09
2023-05-14T06:10:10.383Z,100343.53
2023-05-14T06:12:39.190Z,100342.31
2023-05-14T06:15:11.633Z,100348.38
2023-05-14T06:17:40.552Z,100351.50
2023-05-14T06:20:09.981Z,100357.94
2023-05-14T06:22:38.937Z,100344.81
2023-05-14T06:25:08.114Z,100345.94
2023-05-14T06:27:36.750Z,100350.66
2023-05-14T06:30:09.159Z,100342.84
2023-05-14T06:32:39.192Z,100347.22
2023-05-14T06:35:08.963Z,100347.03
2023-05-14T06:37:37.654Z,100351.09
2023-05-14T06:40:07.491Z,100344.63
2023-05-14T06:42:38.902Z,100353.00
2023-05-14T06:45:08.662Z,100345.69
2023-05-14T06:47:38.603Z,100337.78
2023-05-14T06:50:09.512Z,100347.41
2023-05-14T06:52:43.652Z,100353.44
2023-05-14T06:55:12.185Z,100339.28
2023-05-14T06:57:41.052Z,100340.28
2023-05-14T07:00:10.564Z,100362.22
2023-05-14T07:02:40.372Z,100371.47
2023-05-14T07:05:09.816Z,100354.38
2023-05-14T07:07:38.180Z,100379.78
2023-05-14T07:10:08.230Z,100363.41
2023-05-14T07:12:36.639Z,100364.84
2023-05-14T07:15:05.880Z,100373.06
2023-05-14T07:17:35.728Z,100363.91
2023-05-14T07:20:07.104Z,100368.19
2023-05-14T07:22:35.768Z,100375.84
2023-05-14T07:25:06.539Z,100376.09
2023-05-14T07:27:37.451Z,100370.03
2023-05-14T07:30:09.930Z,100364.22
2023-05-14T07:32:38.703Z,100361.88
2023-05-14T07:35:09.717Z,100367.75
2023-05-14T07:37:38.603Z,100383.28
2023-05-14T07:40:08.414Z,100390.94
2023-05-14T07:42:40.099Z,100377.06
2023-05-14T07:45:10.218Z,100384.94
2023-05-14T07:47:40.015Z,100372.03
2023-05-14T07:50:11.527Z,100388.88
2023-05-14T07:52:40.070Z,100396.38
2023-05-14T07:55:09.226Z,100380.31
2023-05-14T07:57:38.555Z,100380.06
2023-05-14T08:00:09.166Z,100378.44
2023-05-14T08:02:44.362Z,100377.78
2023-05-14T08:05:14.686Z,100394.03
2023-05-14T08:07:43.467Z,100382.78
2023-05-14T08:10:12.343Z,100387.69
2023-05-14T08:12:40.945Z,100378.63
2023-05-14T08:15:10.629Z,100390.09
2023-05-14T08:17:39.406Z,100381.03
2023-05-14T08:20:12.070Z,100398.09
2023-05-14T08:22:41.954Z,100398.16
2023-05-14T08:25:11.073Z,100379.91
2023-05-14T08:27:39.556Z,100386.38
2023-05-14T08:30:09.229Z,100381.03
2023-05-14T08:32:38.767Z,100370.72
2023-05-14T08:35:11.392Z,100379.69
2023-05-14T08:37:41.649Z,100378.41
2023-05-14T08:40:11.084Z,100384.22
2023-05-14T08:42:41.966Z,100385.25
2023-05-14T08:45:15.004Z,100396.03
2023-05-14T08:47:44.400Z,100402.72
2023-05-14T08:50:12.928Z,100391.13
2023-05-14T08:52:43.029Z,100372.03
2023-05-14T08:55:13.200Z,100383.41
2023-05-14T08:57:41.802Z,100379.22
2023-05-14T09:00:15.612Z,100364.84
2023-05-14T09:02:48.631Z,100399.22
2023-05-14T09:05:18.947Z,100392.09
2023-05-14T09:07:50.447Z,100381.84
2023-05-14T09:10:19.007Z,100383.66
2023-05-14T09:12:49.296Z,100382.06
2023-05-14T09:15:17.926Z,100373.94
2023-05-14T09:17:48.288Z,100365.97
2023-05-14T09:20:17.340Z,100359.69
2023-05-14T09:22:45.793Z,100383.53
2023-05-14T09:25:15.794Z,100370.53
2023-05-14T09:27:44.179Z,100373.34
2023-05-14T09:30:17.579Z,100365.63
2023-05-14T09:32:46.426Z,100368.72
2023-05-14T09:35:17.764Z,100374.88
2023-05-14T09:37:48.261Z,100378.47
2023-05-14T09:40:19.525Z,100390.16
2023-05-14T09:42:50.579Z,100392.88
2023-05-14T09:45:19.208Z,100375.50
2023-05-14T09:47:47.869Z,100374.81
2023-05-14T09:50:18.661Z,100370.88
2023-05-14T09:52:47.064Z,100367.38
2023-05-14T09:55:17.115Z,100370.00
2023-05-14T09:57:47.673Z,100360.19
2023-05-14T10:00:17.184Z,100357.63
2023-05-14T10:02:47.320Z,100351.72
2023-05-14T10:05:16.317Z,100357.59
2023-05-14T10:07:49.233Z,100360.06
2023-05-14T10:10:21.152Z,100371.50
2023-05-14T10:12:53.518Z,100380.34
2023-05-14T10:15:25.094Z,100360.31
2023-05-14T10:17:59.255Z,100361.00
2023-05-14T10:20:28.506Z,100362.75
2023-05-14T10:22:57.372Z,100368.63
2023-05-14T10:25:27.389Z,100360.16
2023-05-14T10:27:56.099Z,100363.00
2023-05-14T10:30:25.390Z,100369.41
2023-05-14T10:33:08.536Z,100362.31
2023-05-14T10:35:52.461Z,100368.56
2023-05-14T10:38:24.462Z,100365.06
2023-05-14T10:40:57.025Z,100362.59
2023-05-14T10:43:26.834Z,100343.69
2023-05-14T10:45:55.348Z,100364.50
2023-05-14T10:48:23.996Z,100360.66
2023-05-14T10:50:52.843Z,100365.06
2023-05-14T10:53:22.473Z,100359.50
2023-05-14T10:55:50.851Z,100364.44
2023-05-14T10:58:20.735Z,100370.47
2023-05-14T11:00:49.881Z,100353.03
2023-05-14T11:03:19.763Z,100355.09
2023-05-14T11:05:48.364Z,100359.50
2023-05-14T11:08:19.373Z,100356.84
2023-05-14T11:10:47.950Z,100362.63
2023-05-14T11:13:18.919Z,100358.97
2023-05-14T11:15:49.460Z,100369.78
2023-05-14T11:18:28.093Z,100360.66
2023-05-14T11:20:59.815Z,100352.44
2023-05-14T11:23:29.065Z,100353.63
2023-05-14T11:25:58.018Z,100344.50
2023-05-14T11:28:27.979Z,100346.06
2023-05-14T11:30:57.735Z,100343.38
2023-05-14T11:33:29.043Z,100350.84
2023-05-14T11:35:57.508Z,100344.09
2023-05-14T11:38:25.877Z,100345.88
2023-05-14T11:40:55.115Z,100348.88
2023-05-14T11:43:23.960Z,100341.34
2023-05-14T11:45:57.676Z,100333.63
2023-05-14T11:48:27.605Z,100333.53
2023-05-14T11:50:56.047Z,100337.06
2023-05-14T11:53:31.694Z,100327.06
2023-05-14T11:56:00.271Z,100332.47
2023-05-14T11:58:28.743Z,100333.56
2023-05-14T12:01:01.686Z,100341.28
2023-05-14T12:03:33.086Z,100339.06
2023-05-14T12:06:03.668Z,100344.44
2023-05-14T12:08:33.112Z,100349.78
2023-05-14T12:11:02.153Z,100336.81
2023-05-14T12:13:31.373Z,100333.88
2023-05-14T12:16:02.398Z,100336.34
2023-05-14T12:18:34.003Z,100330.22
2023-05-14T12:21:08.469Z,100327.03
2023-05-14T12:23:40.211Z,100327.75
2023-05-14T12:26:10.418Z,100327.22
2023-05-14T12:28:43.647Z,100337.16
2023-05-14T12:31:12.812Z,100326.84
2023-05-14T12:33:42.663Z,100331.19
2023-05-14T12:36:21.339Z,100312.25
2023-05-14T12:38:51.289Z,100336.47
2023-05-14T12:41:19.959Z,100334.19
2023-05-14T12:43:50.063Z,100344.16
2023-05-14T12:46:18.568Z,100326.03
2023-05-14T12:48:49.042Z,100345.34
2023-05-14T12:51:18.757Z,100339.50
2023-05-14T12:53:47.224Z,100331.66
2023-05-14T12:56:16.152Z,100325.50
2023-05-14T12:58:46.701Z,100344.00
2023-05-14T13:01:15.302Z,100341.31
2023-05-14T13:03:43.835Z,100338.66
2023-05-14T13:06:14.067Z,100330.53
2023-05-14T13:08:42.750Z,100334.22
2023-05-14T13:11:11.631Z,100346.44
2023-05-14T13:13:40.176Z,100347.97
2023-05-14T13:16:16.884Z,100338.50
2023-05-14T13:18:46.150Z,100329.94
2023-05-14T13:21:16.054Z,100343.47
2023-05-14T13:23:44.655Z,100343.44
2023-05-14T13:26:13.110Z,100335.84
2023-05-14T13:28:41.751Z,100341.59
2023-05-14T13:31:12.118Z,100343.53
2023-05-14T13:33:42.891Z,100341.56
2023-05-14T13:36:14.880Z,100349.38
2023-05-14T13:38:45.902Z,100348.44
2023-05-14T13:41:17.056Z,100344.63
2023-05-14T13:43:45.576Z,100348.72
2023-05-14T13:46:13.934Z,100345.94
2023-05-14T13:48:42.526Z,100349.28
2023-05-14T13:51:10.861Z,100346.69
2023-05-14T13:53:39.968Z,100343.63
2023-05-14T13:56:10.042Z,100347.13
2023-05-14T13:58:38.542Z,100347.81
2023-05-14T14:01:07.490Z,100354.00
2023-05-14T14:03:36.229Z,100344.84
2023-05-14T14:06:05.015Z,100353.22
2023-05-14T14:08:33.651Z,100351.50
2023-05-14T14:11:02.236Z,100349.59
2023-05-14T14:13:32.184Z,100347.72
2023-05-14T14:16:00.576Z,100349.09
2023-05-14T14:18:31.594Z,100342.81
2023-05-14T14:21:00.268Z,100355.00
2023-05-14T14:23:28.730Z,100349.78
2023-05-14T14:25:57.426Z,100341.00
2023-05-14T14:28:26.237Z,100340.91
2023-05-14T14:30:56.323Z,100344.34
2023-05-14T14:33:24.960Z,100338.16
2023-05-14T14:35:53.566Z,100343.63
2023-05-14T14:38:21.857Z,100336.84
2023-05-14T14:40:50.460Z,100341.84
2023-05-14T14:43:19.132Z,100332.88
2023-05-14T14:45:48.969Z,100333.72
2023-05-14T14:48:28.271Z,100331.91
2023-05-14T14:50:56.906Z,100344.78
2023-05-14T14:53:26.097Z,100340.66
2023-05-14T14:55:55.160Z,100335.56
2023-05-14T14:58:23.878Z,100339.56
2023-05-14T15:00:53.973Z,100329.94
2023-05-14T15:03:22.921Z,100334.06
2023-05-14T15:05:53.604Z,100328.84
2023-05-14T15:08:25.793Z,100333.25
2023-05-14T15:10:54.382Z,100333.63
2023-05-14T15:13:24.108Z,100346.16
2023-05-14T15:15:55.773Z,100343.94
2023-05-14T15:18:24.343Z,100334.31
2023-05-14T15:20:55.793Z,100340.88
2023-05-14T15:23:24.402Z,100341.97
2023-05-14T15:25:52.845Z,100345.69
2023-05-14T15:28:21.425Z,100339.78
2023-05-14T15:30:50.372Z,100335.63
2023-05-14T15:33:23.671Z,100339.00
2023-05-14T15:35:53.802Z,100335.59
2023-05-14T15:38:22.207Z,100348.84
2023-05-14T15:40:52.698Z,100350.91
2023-05-14T15:43:23.206Z,100334.94
2023-05-14T15:45:53.509Z,100328.88
2023-05-14T15:48:21.949Z,100337.94
2023-05-14T15:50:51.782Z,100333.53
2023-05-14T15:53:21.854Z,100335.31
2023-05-14T15:55:50.520Z,100325.88
2023-05-14T15:58:18.925Z,100334.84
2023-05-14T16:00:47.485Z,100331.28
2023-05-14T16:03:15.920Z,100335.03
2023-05-14T16:05:45.197Z,100338.78
2023-05-14T16:08:13.605Z,100343.97
2023-05-14T16:10:43.728Z,100338.75
2023-05-14T16:13:12.196Z,100334.56
2023-05-14T16:15:41.121Z,100331.97
2023-05-14T16:18:09.785Z,100339.94
2023-05-14T16:20:38.354Z,100334.69
2023-05-14T16:23:06.690Z,100340.13
2023-05-14T16:25:35.175Z,100336.78
2023-05-14T16:28:05.569Z,100331.66
2023-05-14T16:30:34.374Z,100337.78
2023-05-14T16:33:02.718Z,100330.72
2023-05-14T16:35:31.257Z,100332.41
2023-05-14T16:37:59.850Z,100329.91
2023-05-14T16:40:28.380Z,100335.19
2023-05-14T16:42:56.938Z,100334.38
2023-05-14T16:45:29.133Z,100337.03
2023-05-14T16:47:58.478Z,100343.28
2023-05-14T16:50:26.977Z,100347.69
2023-05-14T16:52:55.633Z,100352.13
2023-05-14T16:55:24.486Z,100364.38
2023-05-14T16:57:53.059Z,100358.34
2023-05-14T17:00:21.623Z,100374.06
2023-05-14T17:02:54.319Z,100361.06
2023-05-14T17:05:23.164Z,100358.56
2023-05-14T17:07:51.989Z,100382.91
2023-05-14T17:10:20.634Z,100371.66
2023-05-14T17:12:48.998Z,100369.97
2023-05-14T17:15:17.630Z,100378.66
2023-05-14T17:17:46.416Z,100372.63
2023-05-14T17:20:17.097Z,100367.50
2023-05-14T17:22:48.389Z,100372.69
2023-05-14T17:25:20.127Z,100375.34
2023-05-14T17:27:49.033Z,100372.75
2023-05-14T17:30:17.674Z,100376.25
2023-05-14T17:32:51.101Z,100378.00
2023-05-14T17:35:21.528Z,100379.81
2023-05-14T17:37:50.090Z,100380.72
2023-05-14T17:40:18.709Z,100389.44
2023-05-14T17:42:47.197Z,100383.50
2023-05-14T17:45:20.615Z,100387.06
2023-05-14T17:47:50.550Z,100381.13
2023-05-14T17:50:19.294Z,100393.28
2023-05-14T17:52:49.186Z,100393.34
2023-05-14T17:55:19.323Z,100398.69
2023-05-14T17:57:49.559Z,100395.19
2023-05-14T18:00:18.350Z,100396.19
2023-05-14T18:02:47.278Z,100406.72
2023-05-14T18:05:15.727Z,100404.94
2023-05-14T18:07:44.186Z,100403.22
2023-05-14T18:10:14.243Z,100404.13
2023-05-14T18:12:44.641Z,100408.50
2023-05-14T18:15:15.364Z,100400.75
2023-05-14T18:17:43.930Z,100402.56
2023-05-14T18:20:15.991Z,100399.13
2023-05-14T18:22:47.643Z,100406.16
2023-05-14T18:25:17.781Z,100404.50
2023-05-14T18:27:47.043Z,100406.13
2023-05-14T18:30:17.530Z,100417.47
2023-05-14T18:32:46.695Z,100408.00
2023-05-14T18:35:15.332Z,100404.56
2023-05-14T18:37:43.847Z,100409.97
2023-05-14T18:40:16.869Z,100414.09
2023-05-14T18:42:48.231Z,100407.19
2023-05-14T18:45:16.612Z,100408.94
2023-05-14T18:47:45.519Z,100406.31
2023-05-14T18:50:14.219Z,100411.69
2023-05-14T18:52:42.755Z,100406.53
2023-05-14T18:55:11.289Z,100407.41
2023-05-14T18:57:41.053Z,100415.06
2023-05-14T19:00:12.805Z,100415.13
2023-05-14T19:02:41.566Z,100409.16
2023-05-14T19:05:10.252Z,100412.63
2023-05-14T19:07:43.034Z,100406.63
2023-05-14T19:10:11.935Z,100407.47
2023-05-14T19:12:40.268Z,100404.97
2023-05-14T19:15:11.597Z,100411.16
2023-05-14T19:17:43.066Z,100414.56
2023-05-14T19:20:12.663Z,100414.63
2023-05-14T19:22:41.248Z,100414.50
2023-05-14T19:25:11.217Z,100416.31
2023-05-14T19:27:39.856Z,100424.94
2023-05-14T19:30:14.774Z,100418.03
2023-05-14T19:32:43.544Z,100421.56
2023-05-14T19:35:12.200Z,100418.03
2023-05-14T19:37:43.556Z,100418.94
2023-05-14T19:40:12.581Z,100424.03
2023-05-14T19:42:41.033Z,100416.38
2023-05-14T19:45:10.571Z,100412.03
2023-05-14T19:47:40.597Z,100419.91
2023-05-14T19:50:10.144Z,100419.94
2023-05-14T19:52:39.004Z,100418.13
2023-05-14T19:55:08.187Z,100413.94
2023-05-14T19:57:40.019Z,100417.38
2023-05-14T20:00:12.250Z,100413.97
2023-05-14T20:02:43.274Z,100419.16
2023-05-14T20:05:12.351Z,100419.94
2023-05-14T20:07:40.950Z,100414.91
2023-05-14T20:10:10.509Z,100416.50
2023-05-14T20:12:38.880Z,100425.97
2023-05-14T20:15:08.493Z,100425.97
2023-05-14T20:17:39.598Z,100420.78
2023-05-14T20:20:11.945Z,100415.69
2023-05-14T20:22:40.427Z,100420.88
2023-05-14T20:25:10.174Z,100416.56
2023-05-14T20:27:41.172Z,100407.03
2023-05-14T20:30:10.745Z,100414.88
2023-05-14T20:32:39.109Z,100416.63
2023-05-14T20:35:10.034Z,100410.50
2023-05-14T20:37:38.497Z,100419.25
2023-05-14T20:40:10.530Z,100425.38
2023-05-14T20:42:39.467Z,100419.31
2023-05-14T20:45:08.934Z,100420.94
2023-05-14T20:47:37.374Z,100420.13
2023-05-14T20:50:06.340Z,100422.66
2023-05-14T20:52:36.646Z,100417.53
2023-05-14T20:55:05.625Z,100425.38
2023-05-14T20:57:35.386Z,100420.22
2023-05-14T21:00:07.088Z,100415.00
2023-05-14T21:02:39.451Z,100422.84
2023-05-14T21:05:08.844Z,100421.09
2023-05-14T21:07:39.463Z,100423.69
2023-05-14T21:10:09.898Z,100417.59
2023-05-14T21:12:42.852Z,100424.59
2023-05-14T21:15:12.981Z,100414.22
2023-05-14T21:17:41.458Z,100423.75
2023-05-14T21:20:12.026Z,100419.41
2023-05-14T21:22:41.936Z,100419.41
2023-05-14T21:25:13.339Z,100413.38
2023-05-14T21:27:42.166Z,100421.09
2023-05-14T21:30:14.392Z,100418.53
2023-05-14T21:32:43.078Z,100415.03
2023-05-14T21:35:11.764Z,100416.78
2023-05-14T21:37:41.982Z,100415.03
2023-05-14T21:40:14.026Z,100415.06
2023-05-14T21:42:42.633Z,100422.94
2023-05-14T21:45:11.654Z,100420.34
2023-05-14T21:47:43.401Z,100420.28
2023-05-14T21:50:13.169Z,100412.53
2023-05-14T21:52:43.022Z,100417.75
2023-05-14T21:55:12.006Z,100412.53
2023-05-14T21:57:40.439Z,100416.00
2023-05-14T22:00:13.270Z,100409.97
2023-05-14T22:02:43.941Z,100412.53
2023-05-14T22:05:12.577Z,100412.56
2023-05-14T22:07:42.648Z,100417.75
2023-05-14T22:10:12.020Z,100422.09
2023-05-14T22:12:40.570Z,100410.84
2023-05-14T22:15:10.277Z,100414.28
2023-05-14T22:17:39.171Z,100411.72
2023-05-14T22:20:09.567Z,100413.47
2023-05-14T22:22:38.504Z,100409.16
2023-05-14T22:25:09.630Z,100420.41
2023-05-14T22:27:38.301Z,100410.91
2023-05-14T22:30:08.138Z,100416.94
2023-05-14T22:32:36.645Z,100410.88
2023-05-14T22:35:05.527Z,100415.22
2023-05-14T22:37:34.158Z,100418.72
2023-05-14T22:40:05.155Z,100416.13
2023-05-14T22:42:35.535Z,100412.66
2023-05-14T22:45:04.137Z,100414.41
2023-05-14T22:47:33.621Z,100421.34
2023-05-14T22:50:02.241Z,100423.91
2023-05-14T22:52:32.823Z,100423.91
2023-05-14T22:55:01.818Z,100430.00
2023-05-14T22:57:32.831Z,100426.53
2023-05-14T23:00:02.650Z,100422.19
2023-05-14T23:02:35.393Z,100423.06
2023-05-14T23:05:04.020Z,100426.53
2023-05-14T23:07:32.665Z,100424.78
2023-05-14T23:10:02.203Z,100425.66
2023-05-14T23:12:33.224Z,100427.41
2023-05-14T23:15:03.414Z,100430.00
2023-05-14T23:17:35.862Z,100424.78
2023-05-14T23:20:06.120Z,100430.00
2023-05-14T23:22:34.910Z,100434.31
2023-05-14T23:25:06.372Z,100430.84
2023-05-14T23:27:35.216Z,100434.31
2023-05-14T23:30:06.016Z,100438.59
2023-05-14T23:32:34.924Z,100435.97
2023-05-14T23:35:03.438Z,100440.28
2023-05-14T23:37:33.829Z,100433.31
2023-05-14T23:40:02.722Z,100437.63
2023-05-14T23:42:36.039Z,100438.50
2023-05-14T23:45:06.602Z,100445.41
2023-05-14T23:47:35.569Z,100442.81
2023-05-14T23:50:04.701Z,100446.22
2023-05-14T23:52:33.323Z,100435.84
2023-05-14T23:55:01.944Z,100451.44
2023-05-14T23:57:33.456Z,100441.94
